• Join FlightAware (Why Join?)
  • Login
  • US Flag 
03:55PM EDT


 

Airport Tracker/Info


-or-


 

Live Flight TrackerFlight Track Log ✈ ACA831 ✈ 20-Jun-2013 ✈ CYUL - CYYZ

Flight Track Log - Related Links

Times and Time Zones

All times are in EDT time to prevent confusion due to time zone crossing. See the ACA831 flight status page for this flight to view local times or setup timezone preferences in your user account.

Time Position Orientation Groundspeed Altitude Reporting Facility
EDT Latitude Longitude Course Direction KTS MPH feet Rate Location/Type
04:19PM 45.4333 -73.7500 254° West 160 184 2,500  Level Montreal Center
04:20PM 45.3833 -73.8000 215° Southwest 230 265 5,300 2,100 Climbing Montreal Center
04:21PM 45.3500 -73.8667 235° Southwest 250 288 6,800 840 Climbing Montreal Center
04:22PM 45.4167 -74.3963 270° West  Level FlightAware Approximate
04:22PM 45.3500 -73.9833 270° West 260 299 7,000  Level Montreal Center
04:23PM 45.3833 -74.5556 270° West  Level FlightAware Approximate
04:23PM 45.3833 -74.0667 300° West 260 299 10,200  Level Montreal Center
04:24PM 45.3637 -74.7148 254° West  Level FlightAware Approximate
04:25PM 45.4167 -74.3000 282° West 330 380 16,000  Level Montreal Center
04:26PM 45.4000 -74.4333 260° West 330 380 19,500 3,540 Climbing Montreal Center
04:27PM 45.3833 -74.5833 261° West 350 403 23,100 3,180 Climbing Montreal Center
04:28PM 45.3500 -74.7000 248° West 360 414 25,900 2,700 Climbing Montreal Center
04:29PM 45.3333 -74.8667 262° West 380 437 28,500 2,700 Climbing Montreal Center
04:30PM 45.3000 -74.9833 248° West 390 449 31,300 2,400 Climbing Montreal Center
04:31PM 45.2833 -75.1667 263° West 380 437 33,300 1,320 Climbing Montreal Center
04:32PM 45.2500 -75.3000 250° West 380 437 34,000 300 Climbing Montreal Center
04:33PM 45.2167 -75.4500 253° West 370 426 34,000  Level Montreal Center
04:34PM 45.2000 -75.5833 260° West 380 437 34,000  Level Montreal Center
04:35PM 45.1667 -75.7333 253° West 380 437 34,000  Level Montreal Center
04:36PM 45.1500 -75.8667 260° West 370 426 34,000  Level Montreal Center
04:37PM 45.1167 -76.0167 253° West 370 426 34,000  Level Montreal Center
04:38PM 45.1000 -76.1500 260° West 370 426 34,000  Level Montreal Center
04:39PM 45.0500 -76.3000 245° Southwest 370 426 34,000  Level Montreal Center
04:40PM 45.0167 -76.4167 248° West 380 437 34,000  Level Montreal Center
04:41PM 44.9500 -76.5667 238° Southwest 380 437 34,000  Level Montreal Center
04:42PM 44.9000 -76.6833 239° Southwest 390 449 34,000  Level Montreal Center
04:43PM 44.8500 -76.8167 242° Southwest 390 449 34,000  Level Montreal Center
04:44PM 44.8000 -76.9667 245° Southwest 390 449 34,000  Level Montreal Center
04:45PM 44.7500 -77.1000 242° Southwest 390 449 34,000 -120 Level Montreal Center
04:46PM 44.7000 -77.2167 239° Southwest 390 449 33,800 -780 Descending Montreal Center
04:47PM 44.6500 -77.3500 242° Southwest 390 449 32,500 -1,380 Descending Montreal Center
04:48PM 44.5833 -77.5000 238° Southwest 390 449 31,100 -1,260 Descending Montreal Center
04:49PM 44.5333 -77.6167 239° Southwest 380 437 30,000 -1,200 Descending Montreal Center
04:50PM 44.4667 -77.7500 235° Southwest 380 437 28,800 -1,380 Descending Montreal Center
04:51PM 44.4333 -77.8667 248° West 370 426 27,300 -1,800 Descending Montreal Center
04:52PM 44.3667 -78.0000 235° Southwest 360 414 25,200 -2,100 Descending Montreal Center
04:53PM 44.3333 -78.1167 248° West 360 414 23,200 -2,100 Descending Montreal Center
04:54PM 44.2833 -78.2333 239° Southwest 360 414 21,100 -2,220 Descending Montreal Center
04:55PM 44.2333 -78.3500 239° Southwest 360 414 18,800 -2,160 Descending Montreal Center
04:56PM 44.1667 -78.4667 231° Southwest 350 403 16,800 -2,400 Descending Montreal Center
04:57PM 44.1167 -78.6000 242° Southwest 370 426 14,100 -2,100 Descending Montreal Center
04:58PM 44.0833 -78.7167 248° West 350 403 12,700 -1,680 Descending Montreal Center
04:59PM 44.0333 -78.8333 239° Southwest 330 380 10,800 -1,380 Descending Montreal Center
05:00PM 43.9833 -78.9000 224° Southwest 320 368 10,000 -1,320 Descending Montreal Center
05:01PM 43.9000 -78.9833 216° Southwest 280 322 7,900 -1,500 Descending Toronto Center
05:02PM 43.8667 -79.0833 245° Southwest 250 288 6,600 -960 Descending Toronto Center
05:03PM 43.8500 -79.1667 255° West 250 288 6,000 -660 Descending Toronto Center
05:04PM 43.8500 -79.2667 270° West 260 299 5,300 -540 Descending Toronto Center
05:05PM 43.8167 -79.3333 235° Southwest 220 253 5,000 -600 Descending Toronto Center
05:06PM 43.7833 -79.4000 235° Southwest 210 242 4,100 -960 Descending Toronto Center
05:07PM 43.7500 -79.4500 227° Southwest 180 207 3,100 -1,020 Descending Toronto Center